createdAt,value
2018-07-02T00:01:13.060Z,16.10
2018-07-02T00:03:43.483Z,16.10
2018-07-02T00:06:41.563Z,16.10
2018-07-02T00:09:12.033Z,16.00
2018-07-02T00:11:42.480Z,16.00
2018-07-02T00:14:12.994Z,16.00
2018-07-02T00:16:43.511Z,15.90
2018-07-02T00:19:13.939Z,15.80
2018-07-02T00:21:44.161Z,15.70
2018-07-02T00:24:14.980Z,15.70
2018-07-02T00:26:45.446Z,15.60
2018-07-02T00:29:15.800Z,15.60
2018-07-02T00:31:46.131Z,15.50
2018-07-02T00:34:16.435Z,15.60
2018-07-02T00:36:47.066Z,15.50
2018-07-02T00:39:17.731Z,15.60
2018-07-02T00:41:48.224Z,15.50
2018-07-02T00:44:18.719Z,15.40
2018-07-02T00:46:49.319Z,15.30
2018-07-02T00:49:19.954Z,15.30
2018-07-02T00:51:50.491Z,15.30
2018-07-02T00:54:21.009Z,15.30
2018-07-02T00:56:51.383Z,15.30
2018-07-02T00:59:22.208Z,15.30
2018-07-02T01:02:11.739Z,15.30
2018-07-02T01:04:42.187Z,15.30
2018-07-02T01:07:12.745Z,15.30
2018-07-02T01:09:43.298Z,15.20
2018-07-02T01:14:44.055Z,15.20
2018-07-02T01:17:14.523Z,15.20
2018-07-02T01:19:44.952Z,15.20
2018-07-02T01:22:15.387Z,15.10
2018-07-02T01:24:45.754Z,15.00
2018-07-02T01:27:16.127Z,14.90
2018-07-02T01:29:46.788Z,14.90
2018-07-02T01:32:17.223Z,14.80
2018-07-02T01:34:47.767Z,14.70
2018-07-02T01:37:18.341Z,14.70
2018-07-02T01:42:19.183Z,14.60
2018-07-02T01:44:49.492Z,14.60
2018-07-02T01:47:20.132Z,14.60
2018-07-02T01:49:50.508Z,14.50
2018-07-02T01:52:20.947Z,14.50
2018-07-02T01:54:51.407Z,14.50
2018-07-02T01:57:21.790Z,14.50
2018-07-02T01:59:52.395Z,14.50
2018-07-02T02:02:22.758Z,14.50
2018-07-02T02:04:53.452Z,14.50
2018-07-02T02:07:24.079Z,14.50
2018-07-02T02:09:54.373Z,14.50
2018-07-02T02:12:24.872Z,14.60
2018-07-02T02:14:55.303Z,14.50
2018-07-02T02:17:25.956Z,14.50
2018-07-02T02:19:56.503Z,14.40
2018-07-02T02:22:26.883Z,14.40
2018-07-02T02:25:20.946Z,14.40
2018-07-02T02:27:51.574Z,14.40
2018-07-02T02:30:22.007Z,14.40
2018-07-02T02:32:52.474Z,14.40
2018-07-02T02:35:23.128Z,14.30
2018-07-02T02:37:53.660Z,14.30
2018-07-02T02:40:24.303Z,14.30
2018-07-02T02:42:54.927Z,14.30
2018-07-02T02:45:25.526Z,14.40
2018-07-02T02:47:56.216Z,14.30
2018-07-02T02:50:26.760Z,14.20
2018-07-02T02:52:57.173Z,14.00
2018-07-02T02:55:27.796Z,13.90
2018-07-02T02:57:58.020Z,13.90
2018-07-02T03:02:58.565Z,13.90
2018-07-02T03:05:28.959Z,13.80
2018-07-02T03:07:59.478Z,13.80
2018-07-02T03:10:30.069Z,13.70
2018-07-02T03:13:01.671Z,13.70
2018-07-02T03:15:32.043Z,13.70
2018-07-02T03:18:02.657Z,13.70
2018-07-02T03:20:33.016Z,13.60
2018-07-02T03:23:03.585Z,13.50
2018-07-02T03:25:34.149Z,13.60
2018-07-02T03:28:04.607Z,13.70
2018-07-02T03:30:35.144Z,13.70
2018-07-02T03:33:05.705Z,13.70
2018-07-02T03:35:36.095Z,13.60
2018-07-02T03:38:06.658Z,13.60
2018-07-02T03:40:37.256Z,13.50
2018-07-02T03:43:07.822Z,13.50
2018-07-02T03:45:38.316Z,13.50
2018-07-02T03:50:39.259Z,13.60
2018-07-02T03:53:09.843Z,13.80
2018-07-02T03:55:40.400Z,13.90
2018-07-02T03:58:11.045Z,14.00
2018-07-02T04:00:42.571Z,14.10
2018-07-02T04:03:13.248Z,14.30
2018-07-02T04:05:43.738Z,14.50
2018-07-02T04:08:14.287Z,14.60
2018-07-02T04:10:45.728Z,14.50
2018-07-02T04:13:16.508Z,14.40
2018-07-02T04:15:46.982Z,14.40
2018-07-02T04:18:17.478Z,14.40
2018-07-02T04:21:17.484Z,14.40
2018-07-02T04:23:48.019Z,14.50
2018-07-02T04:26:18.680Z,14.50
2018-07-02T04:28:49.107Z,14.60
2018-07-02T04:31:19.666Z,14.70
2018-07-02T04:33:50.135Z,14.80
2018-07-02T04:36:20.552Z,14.90
2018-07-02T04:38:51.221Z,15.10
2018-07-02T04:41:21.641Z,15.20
2018-07-02T04:43:52.316Z,15.40
2018-07-02T04:46:22.831Z,15.50
2018-07-02T04:48:53.681Z,15.70
2018-07-02T04:51:24.315Z,15.80
2018-07-02T04:53:54.947Z,16.00
2018-07-02T04:56:25.563Z,16.20
2018-07-02T04:58:56.063Z,16.30
2018-07-02T05:01:26.432Z,16.40
2018-07-02T05:03:56.853Z,16.40
2018-07-02T05:06:27.235Z,16.50
2018-07-02T05:08:57.719Z,16.60
2018-07-02T05:11:28.214Z,16.70
2018-07-02T05:13:59.146Z,17.00
2018-07-02T05:16:29.804Z,17.20
2018-07-02T05:19:00.378Z,17.70
2018-07-02T05:21:30.743Z,17.90
2018-07-02T05:24:01.232Z,18.20
2018-07-02T05:26:31.685Z,18.40
2018-07-02T05:29:02.121Z,18.50
2018-07-02T05:31:32.575Z,18.60
2018-07-02T05:34:07.017Z,18.40
2018-07-02T05:36:37.682Z,18.40
2018-07-02T05:39:11.260Z,18.40
2018-07-02T05:41:41.698Z,19.00
2018-07-02T05:44:12.455Z,19.60
2018-07-02T05:46:42.941Z,20.00
2018-07-02T05:51:43.340Z,20.10
2018-07-02T05:54:13.758Z,21.00
2018-07-02T05:56:44.436Z,21.90
2018-07-02T05:59:14.952Z,22.10
2018-07-02T06:01:45.412Z,22.60
2018-07-02T06:04:16.043Z,22.60
2018-07-02T06:06:46.722Z,23.30
2018-07-02T06:09:17.110Z,24.00
2018-07-02T06:11:54.515Z,23.00
2018-07-02T06:14:28.044Z,23.50
2018-07-02T06:16:58.607Z,23.50
2018-07-02T06:19:41.632Z,23.80
2018-07-02T06:22:12.078Z,23.90
2018-07-02T06:24:42.472Z,24.40
2018-07-02T06:27:12.995Z,23.70
2018-07-02T06:29:43.543Z,23.70
2018-07-02T06:32:13.924Z,23.90
2018-07-02T06:34:44.343Z,24.10
2018-07-02T06:37:14.784Z,23.80
2018-07-02T06:39:45.143Z,24.50
2018-07-02T06:42:15.625Z,25.50
2018-07-02T06:44:46.224Z,26.40
2018-07-02T06:47:16.542Z,26.80
2018-07-02T06:49:46.952Z,27.10
2018-07-02T06:52:17.422Z,26.70
2018-07-02T06:54:47.734Z,26.30
2018-07-02T06:57:18.096Z,25.20
2018-07-02T06:59:48.445Z,25.50
2018-07-02T07:02:18.744Z,25.60
2018-07-02T07:04:49.119Z,26.10
2018-07-02T07:07:19.575Z,27.40
2018-07-02T07:09:49.902Z,27.20
2018-07-02T07:12:20.554Z,28.20
2018-07-02T07:14:50.943Z,27.90
2018-07-02T07:17:21.243Z,28.20
2018-07-02T07:19:51.519Z,28.20
2018-07-02T07:22:21.922Z,28.00
2018-07-02T07:24:52.231Z,28.00
2018-07-02T07:27:22.589Z,28.90
2018-07-02T07:29:53.224Z,29.00
2018-07-02T07:32:23.618Z,27.40
2018-07-02T07:34:54.140Z,25.50
2018-07-02T07:37:24.614Z,24.90
2018-07-02T07:39:55.173Z,24.90
2018-07-02T07:42:25.512Z,25.80
2018-07-02T07:44:56.029Z,25.80
2018-07-02T07:47:26.378Z,26.00
2018-07-02T07:49:56.832Z,25.90
2018-07-02T07:52:27.155Z,25.30
2018-07-02T07:54:57.665Z,26.10
2018-07-02T07:57:30.234Z,26.70
2018-07-02T08:00:00.704Z,27.10
2018-07-02T08:02:31.186Z,28.10
2018-07-02T08:05:01.479Z,29.00
2018-07-02T08:07:32.004Z,29.70
2018-07-02T08:10:02.547Z,29.10
2018-07-02T08:12:32.920Z,29.60
2018-07-02T08:15:03.399Z,29.40
2018-07-02T08:17:34.875Z,28.00
2018-07-02T08:20:05.931Z,28.80
2018-07-02T08:22:36.208Z,30.10
2018-07-02T08:25:06.799Z,30.90
2018-07-02T08:27:36.945Z,29.80
2018-07-02T08:30:08.736Z,28.60
2018-07-02T08:32:39.287Z,29.30
2018-07-02T08:35:09.695Z,29.70
2018-07-02T08:37:40.310Z,30.20
2018-07-02T08:40:10.649Z,30.00
2018-07-02T08:42:41.138Z,29.90
2018-07-02T08:47:41.499Z,30.50
2018-07-02T08:50:11.863Z,31.00
2018-07-02T08:52:42.394Z,29.80
2018-07-02T08:55:12.789Z,28.50
2018-07-02T08:57:43.091Z,28.00
2018-07-02T09:00:13.550Z,28.40
2018-07-02T09:02:43.955Z,27.80
2018-07-02T09:05:14.335Z,27.80
2018-07-02T09:07:44.712Z,28.70
2018-07-02T09:10:15.105Z,30.20
2018-07-02T09:12:45.636Z,31.00
2018-07-02T09:15:16.040Z,31.30
2018-07-02T09:17:46.416Z,31.10
2018-07-02T09:20:16.702Z,30.70
2018-07-02T09:22:47.190Z,31.40
2018-07-02T09:25:17.519Z,30.80
2018-07-02T09:27:47.919Z,30.80
2018-07-02T09:30:18.367Z,29.70
2018-07-02T09:32:48.735Z,28.10
2018-07-02T09:35:19.075Z,28.80
2018-07-02T09:37:49.462Z,27.90
2018-07-02T09:40:19.903Z,27.90
2018-07-02T09:42:50.355Z,29.60
2018-07-02T09:45:20.777Z,30.90
2018-07-02T09:47:51.175Z,31.60
2018-07-02T09:50:21.776Z,31.80
2018-07-02T09:55:22.088Z,31.00
2018-07-02T09:57:52.729Z,31.70
2018-07-02T10:00:36.925Z,32.40
2018-07-02T10:03:09.691Z,33.00
2018-07-02T10:05:40.328Z,30.80
2018-07-02T10:08:10.714Z,31.60
2018-07-02T10:10:41.082Z,30.50
2018-07-02T10:13:11.531Z,30.70
2018-07-02T10:15:42.071Z,31.80
2018-07-02T10:18:12.439Z,32.70
2018-07-02T10:20:42.827Z,33.60
2018-07-02T10:23:13.297Z,33.40
2018-07-02T10:25:43.784Z,34.00
2018-07-02T10:28:14.354Z,34.20
2018-07-02T10:30:44.724Z,34.50
2018-07-02T10:33:15.119Z,34.00
2018-07-02T10:35:45.438Z,33.10
2018-07-02T10:38:15.951Z,33.20
2018-07-02T10:40:46.367Z,33.70
2018-07-02T10:43:16.758Z,33.80
2018-07-02T10:45:47.178Z,34.30
2018-07-02T10:48:23.361Z,33.80
2018-07-02T10:50:54.129Z,34.20
2018-07-02T10:53:24.675Z,33.80
2018-07-02T10:55:55.019Z,33.60
2018-07-02T10:58:25.581Z,34.30
2018-07-02T11:00:55.916Z,34.30
2018-07-02T11:03:26.434Z,32.30
2018-07-02T11:05:56.759Z,32.30
2018-07-02T11:08:27.368Z,32.70
2018-07-02T11:10:57.826Z,33.80
2018-07-02T11:13:28.262Z,33.30
2018-07-02T11:15:58.641Z,32.70
2018-07-02T11:18:28.863Z,32.20
2018-07-02T11:20:59.323Z,33.30
2018-07-02T11:23:35.083Z,32.90
2018-07-02T11:26:05.628Z,33.50
2018-07-02T11:28:36.096Z,34.50
2018-07-02T11:31:06.305Z,35.30
2018-07-02T11:33:36.699Z,35.40
2018-07-02T11:36:07.224Z,33.50
2018-07-02T11:38:37.521Z,33.70
2018-07-02T11:41:07.892Z,34.50
2018-07-02T11:43:38.253Z,34.90
2018-07-02T11:46:08.702Z,34.70
2018-07-02T11:48:38.992Z,35.40
2018-07-02T11:51:09.298Z,34.90
2018-07-02T11:53:39.567Z,34.80
2018-07-02T11:56:09.963Z,34.90
2018-07-02T11:58:40.424Z,35.90
2018-07-02T12:01:10.715Z,36.50
2018-07-02T12:03:41.102Z,37.10
2018-07-02T12:06:15.303Z,36.60
2018-07-02T12:08:45.661Z,37.10
2018-07-02T12:11:15.939Z,37.20
2018-07-02T12:13:46.375Z,36.20
2018-07-02T12:16:16.856Z,34.70
2018-07-02T12:18:47.353Z,34.70
2018-07-02T12:21:17.734Z,34.10
2018-07-02T12:23:48.108Z,34.80
2018-07-02T12:26:18.497Z,35.40
2018-07-02T12:28:48.927Z,35.70
2018-07-02T12:31:19.410Z,37.10
2018-07-02T12:33:49.961Z,37.90
2018-07-02T12:36:20.710Z,38.10
2018-07-02T12:38:51.199Z,35.60
2018-07-02T12:41:21.475Z,36.10
2018-07-02T12:43:51.951Z,36.00
2018-07-02T12:46:22.497Z,35.10
2018-07-02T12:48:52.731Z,36.10
2018-07-02T12:51:23.167Z,37.80
2018-07-02T12:53:53.673Z,39.20
2018-07-02T12:56:24.927Z,37.90
2018-07-02T12:58:55.653Z,38.60
2018-07-02T13:01:26.103Z,39.20
2018-07-02T13:03:56.543Z,38.70
2018-07-02T13:06:26.752Z,39.40
2018-07-02T13:08:57.137Z,39.70
2018-07-02T13:11:27.454Z,38.30
2018-07-02T13:13:57.901Z,36.90
2018-07-02T13:16:28.430Z,36.50
2018-07-02T13:18:58.735Z,36.00
2018-07-02T13:21:29.161Z,34.80
2018-07-02T13:23:59.429Z,35.20
2018-07-02T13:26:30.049Z,36.10
2018-07-02T13:29:00.319Z,36.50
2018-07-02T13:31:30.978Z,37.20
2018-07-02T13:34:01.295Z,38.20
2018-07-02T13:36:31.559Z,37.50
2018-07-02T13:39:01.999Z,36.40
2018-07-02T13:41:32.555Z,34.70
2018-07-02T13:44:02.849Z,34.70
2018-07-02T13:46:33.337Z,34.90
2018-07-02T13:49:03.733Z,35.20
2018-07-02T13:51:34.123Z,36.20
2018-07-02T13:54:04.502Z,36.90
2018-07-02T13:56:35.380Z,38.50
2018-07-02T14:01:35.628Z,38.20
2018-07-02T14:04:06.124Z,39.30
2018-07-02T14:06:36.427Z,40.20
2018-07-02T14:09:10.785Z,40.40
2018-07-02T14:11:42.043Z,39.20
2018-07-02T14:14:12.505Z,38.90
2018-07-02T14:16:42.800Z,37.40
2018-07-02T14:19:13.285Z,36.00
2018-07-02T14:21:43.859Z,34.60
2018-07-02T14:24:14.485Z,33.70
2018-07-02T14:26:44.874Z,33.40
2018-07-02T14:29:15.276Z,33.40
2018-07-02T14:31:45.763Z,33.40
2018-07-02T14:34:15.982Z,34.80
2018-07-02T14:39:16.480Z,36.90
2018-07-02T14:41:47.160Z,36.90
2018-07-02T14:44:17.449Z,37.20
2018-07-02T14:46:47.701Z,37.10
2018-07-02T14:49:18.185Z,37.40
2018-07-02T14:51:48.644Z,36.00
2018-07-02T14:56:51.776Z,37.20
2018-07-02T14:59:22.805Z,38.90
2018-07-02T15:01:53.250Z,40.40
2018-07-02T15:04:23.847Z,40.20
2018-07-02T15:06:54.472Z,39.80
2018-07-02T15:09:25.107Z,38.50
2018-07-02T15:14:26.856Z,39.00
2018-07-02T15:16:57.390Z,40.30
2018-07-02T15:19:28.241Z,40.60
2018-07-02T15:21:59.203Z,40.40
2018-07-02T15:24:30.113Z,41.20
2018-07-02T15:27:00.664Z,41.70
2018-07-02T15:29:31.417Z,41.30
2018-07-02T15:32:02.145Z,40.90
2018-07-02T15:34:32.701Z,40.70
2018-07-02T15:37:03.346Z,39.80
2018-07-02T15:39:33.805Z,39.90
2018-07-02T15:42:06.008Z,40.30
2018-07-02T15:44:36.433Z,40.50
2018-07-02T15:47:07.121Z,39.50
2018-07-02T15:49:37.735Z,39.10
2018-07-02T15:52:09.050Z,38.90
2018-07-02T15:54:39.788Z,39.30
2018-07-02T15:57:22.563Z,39.50
2018-07-02T15:59:53.059Z,39.30
2018-07-02T16:02:23.998Z,39.40
2018-07-02T16:04:54.294Z,38.80
2018-07-02T16:07:28.640Z,38.40
2018-07-02T16:09:59.003Z,38.50
2018-07-02T16:12:29.481Z,39.00
2018-07-02T16:14:59.869Z,38.80
2018-07-02T16:17:30.345Z,38.40
2018-07-02T16:20:01.250Z,38.00
2018-07-02T16:22:31.573Z,37.70
2018-07-02T16:25:02.152Z,37.60
2018-07-02T16:27:32.854Z,37.70
2018-07-02T16:30:03.358Z,37.50
2018-07-02T16:32:33.628Z,37.90
2018-07-02T16:35:07.267Z,38.30
2018-07-02T16:37:37.596Z,38.00
2018-07-02T16:40:08.266Z,37.60
2018-07-02T16:42:38.847Z,36.80
2018-07-02T16:45:09.074Z,36.90
2018-07-02T16:47:39.542Z,36.90
2018-07-02T16:50:09.915Z,37.00
2018-07-02T16:52:40.539Z,36.80
2018-07-02T16:55:11.034Z,36.20
2018-07-02T17:00:53.061Z,35.10
2018-07-02T17:03:23.520Z,34.80
2018-07-02T17:05:54.150Z,34.20
2018-07-02T17:08:37.853Z,34.20
2018-07-02T17:11:08.269Z,33.80
2018-07-02T17:13:38.713Z,34.10
2018-07-02T17:16:09.107Z,33.60
2018-07-02T17:18:39.609Z,33.60
2018-07-02T17:21:10.132Z,33.80
2018-07-02T17:23:40.985Z,33.80
2018-07-02T17:26:11.992Z,33.60
2018-07-02T17:28:42.996Z,33.20
2018-07-02T17:31:14.019Z,31.90
2018-07-02T17:33:45.040Z,31.10
2018-07-02T17:36:16.049Z,31.10
2018-07-02T17:38:47.062Z,31.00
2018-07-02T17:41:17.755Z,31.10
2018-07-02T17:43:48.411Z,31.40
2018-07-02T17:46:19.613Z,31.50
2018-07-02T17:48:50.371Z,31.50
2018-07-02T17:51:21.244Z,31.30
2018-07-02T17:53:52.320Z,31.60
2018-07-02T17:56:28.159Z,31.50
2018-07-02T17:58:58.868Z,31.40
2018-07-02T18:01:29.852Z,31.00
2018-07-02T18:04:00.880Z,30.70
2018-07-02T18:06:31.945Z,30.50
2018-07-02T18:09:03.189Z,30.30
2018-07-02T18:11:38.785Z,30.10
2018-07-02T18:14:11.273Z,30.10
2018-07-02T18:16:42.323Z,29.90
2018-07-02T18:19:14.011Z,29.40
2018-07-02T18:21:44.600Z,29.30
2018-07-02T18:24:15.269Z,29.20
2018-07-02T18:26:45.918Z,29.20
2018-07-02T18:29:17.813Z,29.20
2018-07-02T18:31:49.116Z,28.90
2018-07-02T18:34:30.047Z,28.80
2018-07-02T18:37:15.299Z,28.70
2018-07-02T18:39:45.666Z,28.60
2018-07-02T18:42:15.790Z,28.10
2018-07-02T18:44:46.063Z,27.80
2018-07-02T18:47:16.349Z,27.60
2018-07-02T18:49:46.651Z,27.30
2018-07-02T18:52:16.788Z,27.00
2018-07-02T18:54:47.132Z,26.60
2018-07-02T18:57:17.277Z,26.40
2018-07-02T18:59:47.592Z,26.20
2018-07-02T19:02:17.814Z,26.00
2018-07-02T19:04:48.288Z,25.80
2018-07-02T19:07:18.694Z,25.70
2018-07-02T19:09:49.198Z,25.60
2018-07-02T19:12:19.791Z,25.40
2018-07-02T19:14:50.883Z,25.30
2018-07-02T19:17:21.736Z,25.00
2018-07-02T19:19:52.575Z,24.80
2018-07-02T19:22:23.244Z,24.70
2018-07-02T19:24:53.892Z,24.50
2018-07-02T19:27:43.749Z,24.40
2018-07-02T19:30:15.604Z,24.30
2018-07-02T19:32:46.756Z,24.10
2018-07-02T19:35:17.636Z,24.00
2018-07-02T19:37:48.576Z,24.00
2018-07-02T19:40:19.653Z,23.90
2018-07-02T19:42:50.294Z,23.80
2018-07-02T19:45:21.676Z,23.70
2018-07-02T19:47:53.958Z,23.70
2018-07-02T19:50:25.662Z,23.60
2018-07-02T19:52:56.683Z,23.50
2018-07-02T19:55:27.722Z,23.40
2018-07-02T19:57:58.736Z,23.30
2018-07-02T20:00:33.730Z,23.20
2018-07-02T20:03:04.465Z,23.20
2018-07-02T20:05:35.775Z,23.00
2018-07-02T20:08:06.791Z,23.00
2018-07-02T20:10:37.823Z,22.80
2018-07-02T20:13:09.439Z,22.70
2018-07-02T20:15:40.355Z,22.50
2018-07-02T20:18:16.848Z,22.40
2018-07-02T20:20:47.881Z,22.30
2018-07-02T20:23:19.377Z,22.10
2018-07-02T20:25:50.399Z,22.00
2018-07-02T20:28:21.520Z,22.00
2018-07-02T20:30:52.662Z,22.00
2018-07-02T20:35:53.914Z,22.00
2018-07-02T20:38:24.674Z,22.00
2018-07-02T20:41:08.072Z,21.90
2018-07-02T20:43:38.916Z,21.90
2018-07-02T20:46:09.701Z,21.70
2018-07-02T20:48:40.971Z,21.70
2018-07-02T20:51:35.987Z,21.60
2018-07-02T20:54:06.956Z,21.60
2018-07-02T20:56:37.679Z,21.50
2018-07-02T20:59:08.652Z,21.40
2018-07-02T21:01:40.001Z,21.30
2018-07-02T21:04:10.332Z,21.20
2018-07-02T21:06:50.751Z,21.10
2018-07-02T21:09:21.580Z,21.00
2018-07-02T21:11:51.851Z,21.00
2018-07-02T21:14:22.334Z,20.90
2018-07-02T21:16:56.294Z,20.80
2018-07-02T21:19:27.778Z,20.70
2018-07-02T21:21:59.136Z,20.70
2018-07-02T21:24:30.151Z,20.70
2018-07-02T21:27:01.344Z,20.70
2018-07-02T21:29:32.324Z,20.60
2018-07-02T21:32:03.311Z,20.60
2018-07-02T21:34:33.863Z,20.60
2018-07-02T21:37:04.832Z,20.50
2018-07-02T21:39:36.281Z,20.50
2018-07-02T21:42:07.422Z,20.60
2018-07-02T21:44:38.798Z,20.60
2018-07-02T21:47:10.272Z,20.50
2018-07-02T21:49:40.980Z,20.50
2018-07-02T21:52:11.974Z,20.50
2018-07-02T21:54:42.775Z,20.40
2018-07-02T21:57:13.612Z,20.40
2018-07-02T21:59:44.827Z,20.30
2018-07-02T22:02:15.644Z,20.20
2018-07-02T22:04:46.951Z,20.10
2018-07-02T22:07:18.040Z,20.10
2018-07-02T22:09:48.979Z,20.00
2018-07-02T22:12:19.643Z,19.90
2018-07-02T22:14:50.866Z,19.80
2018-07-02T22:17:21.987Z,19.70
2018-07-02T22:19:52.958Z,19.80
2018-07-02T22:22:23.901Z,19.70
2018-07-02T22:24:54.924Z,19.60
2018-07-02T22:27:25.943Z,19.50
2018-07-02T22:29:57.215Z,19.40
2018-07-02T22:32:28.507Z,19.40
2018-07-02T22:34:59.271Z,19.30
2018-07-02T22:37:30.227Z,19.20
2018-07-02T22:40:01.545Z,19.10
2018-07-02T22:42:32.570Z,19.00
2018-07-02T22:45:03.551Z,19.00
2018-07-02T22:47:35.273Z,19.00
2018-07-02T22:50:06.284Z,18.90
2018-07-02T22:52:36.747Z,18.90
2018-07-02T22:55:07.200Z,18.90
2018-07-02T22:57:37.596Z,18.90
2018-07-02T23:00:08.549Z,18.90
2018-07-02T23:02:39.033Z,18.80
2018-07-02T23:05:09.534Z,18.80
2018-07-02T23:10:09.989Z,18.70
2018-07-02T23:12:41.902Z,18.70
2018-07-02T23:15:13.008Z,18.70
2018-07-02T23:17:44.296Z,18.60
2018-07-02T23:20:15.040Z,18.60
2018-07-02T23:23:00.449Z,18.50
2018-07-02T23:25:31.758Z,18.40
2018-07-02T23:28:03.131Z,18.40
2018-07-02T23:30:37.401Z,18.40
2018-07-02T23:33:08.093Z,18.30
2018-07-02T23:35:38.970Z,18.30
2018-07-02T23:40:40.095Z,18.20
2018-07-02T23:43:11.033Z,18.20
2018-07-02T23:45:41.958Z,18.10
2018-07-02T23:48:12.874Z,18.10
2018-07-02T23:50:43.499Z,18.20
2018-07-02T23:53:14.639Z,18.20
2018-07-02T23:55:45.232Z,18.10
2018-07-02T23:58:16.415Z,18.10
